sensor_id;sensor_type;location;lat;lon;timestamp;temperature;humidity
4366;DHT22;2196;47.422;9.656;2023-10-19T00:00:56;10.20;99.90
4366;DHT22;2196;47.422;9.656;2023-10-19T00:03:24;10.20;99.90
4366;DHT22;2196;47.422;9.656;2023-10-19T00:05:56;10.20;99.90
4366;DHT22;2196;47.422;9.656;2023-10-19T00:08:24;10.20;99.90
4366;DHT22;2196;47.422;9.656;2023-10-19T00:10:52;10.20;99.90
4366;DHT22;2196;47.422;9.656;2023-10-19T00:13:27;10.40;99.90
4366;DHT22;2196;47.422;9.656;2023-10-19T00:15:56;10.30;99.90
4366;DHT22;2196;47.422;9.656;2023-10-19T00:18:26;10.30;99.90
4366;DHT22;2196;47.422;9.656;2023-10-19T00:20:55;10.30;99.90
4366;DHT22;2196;47.422;9.656;2023-10-19T00:23:36;10.30;99.90
4366;DHT22;2196;47.422;9.656;2023-10-19T00:26:05;10.30;99.90
4366;DHT22;2196;47.422;9.656;2023-10-19T00:28:34;10.30;99.90
4366;DHT22;2196;47.422;9.656;2023-10-19T00:31:04;10.30;99.90
4366;DHT22;2196;47.422;9.656;2023-10-19T00:33:35;10.40;99.90
4366;DHT22;2196;47.422;9.656;2023-10-19T00:36:05;10.40;99.90
4366;DHT22;2196;47.422;9.656;2023-10-19T00:38:33;10.40;99.90
4366;DHT22;2196;47.422;9.656;2023-10-19T00:41:08;10.50;99.90
4366;DHT22;2196;47.422;9.656;2023-10-19T00:43:40;10.50;99.90
4366;DHT22;2196;47.422;9.656;2023-10-19T00:46:10;10.50;99.90
4366;DHT22;2196;47.422;9.656;2023-10-19T00:48:50;10.40;99.90
4366;DHT22;2196;47.422;9.656;2023-10-19T00:51:21;10.40;99.90
4366;DHT22;2196;47.422;9.656;2023-10-19T00:54:09;10.30;99.90
4366;DHT22;2196;47.422;9.656;2023-10-19T00:56:40;10.40;99.90
4366;DHT22;2196;47.422;9.656;2023-10-19T00:59:12;10.40;99.90
4366;DHT22;2196;47.422;9.656;2023-10-19T01:01:40;10.30;99.90
4366;DHT22;2196;47.422;9.656;2023-10-19T01:04:11;10.30;99.90
4366;DHT22;2196;47.422;9.656;2023-10-19T01:06:40;10.30;99.90
4366;DHT22;2196;47.422;9.656;2023-10-19T01:09:10;10.30;99.90
4366;DHT22;2196;47.422;9.656;2023-10-19T01:11:41;10.20;99.90
4366;DHT22;2196;47.422;9.656;2023-10-19T01:14:20;10.20;99.90
4366;DHT22;2196;47.422;9.656;2023-10-19T01:16:49;10.20;99.90
4366;DHT22;2196;47.422;9.656;2023-10-19T01:19:17;10.20;99.90
4366;DHT22;2196;47.422;9.656;2023-10-19T01:21:46;10.20;99.90
4366;DHT22;2196;47.422;9.656;2023-10-19T01:24:19;10.20;99.90
4366;DHT22;2196;47.422;9.656;2023-10-19T01:26:53;10.30;99.90
4366;DHT22;2196;47.422;9.656;2023-10-19T01:29:22;10.20;99.90
4366;DHT22;2196;47.422;9.656;2023-10-19T01:31:53;10.20;99.90
4366;DHT22;2196;47.422;9.656;2023-10-19T01:34:30;10.20;99.90
4366;DHT22;2196;47.422;9.656;2023-10-19T01:36:58;10.10;99.90
4366;DHT22;2196;47.422;9.656;2023-10-19T01:39:30;10.10;99.90
4366;DHT22;2196;47.422;9.656;2023-10-19T01:41:57;10.10;99.90
4366;DHT22;2196;47.422;9.656;2023-10-19T01:44:24;10.10;99.90
4366;DHT22;2196;47.422;9.656;2023-10-19T01:46:52;10.00;99.90
4366;DHT22;2196;47.422;9.656;2023-10-19T01:49:19;10.00;99.90
4366;DHT22;2196;47.422;9.656;2023-10-19T01:51:52;10.00;99.90
4366;DHT22;2196;47.422;9.656;2023-10-19T01:54:20;10.00;99.90
4366;DHT22;2196;47.422;9.656;2023-10-19T01:56:51;9.90;99.90
4366;DHT22;2196;47.422;9.656;2023-10-19T01:59:21;9.90;99.90
4366;DHT22;2196;47.422;9.656;2023-10-19T02:01:47;10.10;99.90
4366;DHT22;2196;47.422;9.656;2023-10-19T02:04:15;10.10;99.90
4366;DHT22;2196;47.422;9.656;2023-10-19T02:06:41;10.10;99.90
4366;DHT22;2196;47.422;9.656;2023-10-19T02:09:12;10.10;99.90
4366;DHT22;2196;47.422;9.656;2023-10-19T02:11:52;10.10;99.90
4366;DHT22;2196;47.422;9.656;2023-10-19T02:14:21;10.10;99.90
4366;DHT22;2196;47.422;9.656;2023-10-19T02:16:48;10.20;99.90
4366;DHT22;2196;47.422;9.656;2023-10-19T02:19:16;10.20;99.90
4366;DHT22;2196;47.422;9.656;2023-10-19T02:21:43;10.20;99.90
4366;DHT22;2196;47.422;9.656;2023-10-19T02:24:13;10.20;99.90
4366;DHT22;2196;47.422;9.656;2023-10-19T02:26:40;10.10;99.90
4366;DHT22;2196;47.422;9.656;2023-10-19T02:29:08;10.20;99.90
4366;DHT22;2196;47.422;9.656;2023-10-19T02:31:35;10.30;99.90
4366;DHT22;2196;47.422;9.656;2023-10-19T02:34:05;10.20;99.90
4366;DHT22;2196;47.422;9.656;2023-10-19T02:36:33;10.20;99.90
4366;DHT22;2196;47.422;9.656;2023-10-19T02:39:04;10.30;99.90
4366;DHT22;2196;47.422;9.656;2023-10-19T02:41:33;10.30;99.90
4366;DHT22;2196;47.422;9.656;2023-10-19T02:44:02;10.30;99.90
4366;DHT22;2196;47.422;9.656;2023-10-19T02:46:32;10.50;99.90
4366;DHT22;2196;47.422;9.656;2023-10-19T02:49:00;10.50;99.90
4366;DHT22;2196;47.422;9.656;2023-10-19T02:51:26;10.60;99.90
4366;DHT22;2196;47.422;9.656;2023-10-19T02:53:53;10.60;99.90
4366;DHT22;2196;47.422;9.656;2023-10-19T02:56:21;10.60;99.90
4366;DHT22;2196;47.422;9.656;2023-10-19T02:58:49;10.60;99.90
4366;DHT22;2196;47.422;9.656;2023-10-19T03:01:17;10.50;99.90
4366;DHT22;2196;47.422;9.656;2023-10-19T03:03:50;10.50;99.90
4366;DHT22;2196;47.422;9.656;2023-10-19T03:06:20;10.40;99.90
4366;DHT22;2196;47.422;9.656;2023-10-19T03:08:47;10.30;99.90
4366;DHT22;2196;47.422;9.656;2023-10-19T03:11:18;10.20;99.90
4366;DHT22;2196;47.422;9.656;2023-10-19T03:13:46;10.20;99.90
4366;DHT22;2196;47.422;9.656;2023-10-19T03:16:15;10.20;99.90
4366;DHT22;2196;47.422;9.656;2023-10-19T03:18:41;10.20;99.90
4366;DHT22;2196;47.422;9.656;2023-10-19T03:21:10;10.20;99.90
4366;DHT22;2196;47.422;9.656;2023-10-19T03:23:36;10.10;99.90
4366;DHT22;2196;47.422;9.656;2023-10-19T03:26:04;10.00;99.90
4366;DHT22;2196;47.422;9.656;2023-10-19T03:28:49;10.00;99.90
4366;DHT22;2196;47.422;9.656;2023-10-19T03:31:21;10.00;99.90
4366;DHT22;2196;47.422;9.656;2023-10-19T03:33:49;10.00;99.90
4366;DHT22;2196;47.422;9.656;2023-10-19T03:36:21;9.90;99.90
4366;DHT22;2196;47.422;9.656;2023-10-19T03:38:49;9.90;99.90
4366;DHT22;2196;47.422;9.656;2023-10-19T03:41:19;9.90;99.90
4366;DHT22;2196;47.422;9.656;2023-10-19T03:43:48;10.00;99.90
4366;DHT22;2196;47.422;9.656;2023-10-19T03:46:17;10.00;99.90
4366;DHT22;2196;47.422;9.656;2023-10-19T03:48:54;10.00;99.90
4366;DHT22;2196;47.422;9.656;2023-10-19T03:51:25;10.00;99.90
4366;DHT22;2196;47.422;9.656;2023-10-19T03:53:53;10.00;99.90
4366;DHT22;2196;47.422;9.656;2023-10-19T03:56:26;10.00;99.90
4366;DHT22;2196;47.422;9.656;2023-10-19T03:58:54;10.00;99.90
4366;DHT22;2196;47.422;9.656;2023-10-19T04:01:24;10.10;99.90
4366;DHT22;2196;47.422;9.656;2023-10-19T04:03:51;10.10;99.90
4366;DHT22;2196;47.422;9.656;2023-10-19T04:06:20;10.20;99.90
4366;DHT22;2196;47.422;9.656;2023-10-19T04:08:49;10.20;99.90
4366;DHT22;2196;47.422;9.656;2023-10-19T04:11:17;10.20;99.90
4366;DHT22;2196;47.422;9.656;2023-10-19T04:13:49;10.20;99.90
4366;DHT22;2196;47.422;9.656;2023-10-19T04:16:20;10.20;99.90
4366;DHT22;2196;47.422;9.656;2023-10-19T04:18:47;10.20;99.90
4366;DHT22;2196;47.422;9.656;2023-10-19T04:21:16;10.30;99.90
4366;DHT22;2196;47.422;9.656;2023-10-19T04:23:43;10.40;99.90
4366;DHT22;2196;47.422;9.656;2023-10-19T04:26:13;10.30;99.90
4366;DHT22;2196;47.422;9.656;2023-10-19T04:28:44;10.30;99.90
4366;DHT22;2196;47.422;9.656;2023-10-19T04:31:15;10.30;99.90
4366;DHT22;2196;47.422;9.656;2023-10-19T04:33:43;10.30;99.90
4366;DHT22;2196;47.422;9.656;2023-10-19T04:36:13;10.30;99.90
4366;DHT22;2196;47.422;9.656;2023-10-19T04:38:41;10.30;99.90
4366;DHT22;2196;47.422;9.656;2023-10-19T04:41:10;10.30;99.90
4366;DHT22;2196;47.422;9.656;2023-10-19T04:43:39;10.30;99.90
4366;DHT22;2196;47.422;9.656;2023-10-19T04:46:09;10.30;99.90
4366;DHT22;2196;47.422;9.656;2023-10-19T04:48:38;10.30;99.90
4366;DHT22;2196;47.422;9.656;2023-10-19T04:51:10;10.40;99.90
4366;DHT22;2196;47.422;9.656;2023-10-19T04:53:37;10.50;99.90
4366;DHT22;2196;47.422;9.656;2023-10-19T04:56:05;10.50;99.90
4366;DHT22;2196;47.422;9.656;2023-10-19T04:58:34;10.50;99.90
4366;DHT22;2196;47.422;9.656;2023-10-19T05:01:03;10.60;99.90
4366;DHT22;2196;47.422;9.656;2023-10-19T05:03:31;10.60;99.90
4366;DHT22;2196;47.422;9.656;2023-10-19T05:06:01;10.60;99.90
4366;DHT22;2196;47.422;9.656;2023-10-19T05:08:28;10.60;99.90
4366;DHT22;2196;47.422;9.656;2023-10-19T05:10:59;10.60;99.90
4366;DHT22;2196;47.422;9.656;2023-10-19T05:13:27;10.60;99.90
4366;DHT22;2196;47.422;9.656;2023-10-19T05:15:57;10.60;99.90
4366;DHT22;2196;47.422;9.656;2023-10-19T05:18:26;10.60;99.90
4366;DHT22;2196;47.422;9.656;2023-10-19T05:20:56;10.60;99.90
4366;DHT22;2196;47.422;9.656;2023-10-19T05:23:25;10.60;99.90
4366;DHT22;2196;47.422;9.656;2023-10-19T05:26:01;10.60;99.90
4366;DHT22;2196;47.422;9.656;2023-10-19T05:28:29;10.60;99.90
4366;DHT22;2196;47.422;9.656;2023-10-19T05:30:59;10.60;99.90
4366;DHT22;2196;47.422;9.656;2023-10-19T05:33:28;10.60;99.90
4366;DHT22;2196;47.422;9.656;2023-10-19T05:35:58;10.60;99.90
4366;DHT22;2196;47.422;9.656;2023-10-19T05:38:26;10.60;99.90
4366;DHT22;2196;47.422;9.656;2023-10-19T05:40:57;10.60;99.90
4366;DHT22;2196;47.422;9.656;2023-10-19T05:43:24;10.60;99.90
4366;DHT22;2196;47.422;9.656;2023-10-19T05:45:51;10.60;99.90
4366;DHT22;2196;47.422;9.656;2023-10-19T05:48:20;10.60;99.90
4366;DHT22;2196;47.422;9.656;2023-10-19T05:50:50;10.50;99.90
4366;DHT22;2196;47.422;9.656;2023-10-19T05:53:17;10.50;99.90
4366;DHT22;2196;47.422;9.656;2023-10-19T05:55:45;10.60;99.90
4366;DHT22;2196;47.422;9.656;2023-10-19T05:58:12;10.60;99.90
4366;DHT22;2196;47.422;9.656;2023-10-19T06:00:39;10.60;99.90
4366;DHT22;2196;47.422;9.656;2023-10-19T06:03:06;10.60;99.90
4366;DHT22;2196;47.422;9.656;2023-10-19T06:05:33;10.60;99.90
4366;DHT22;2196;47.422;9.656;2023-10-19T06:08:01;10.60;99.90
4366;DHT22;2196;47.422;9.656;2023-10-19T06:10:30;10.60;99.90
4366;DHT22;2196;47.422;9.656;2023-10-19T06:12:58;10.60;99.90
4366;DHT22;2196;47.422;9.656;2023-10-19T06:15:25;10.60;99.90
4366;DHT22;2196;47.422;9.656;2023-10-19T06:17:54;10.60;99.90
4366;DHT22;2196;47.422;9.656;2023-10-19T06:20:22;10.60;99.90
4366;DHT22;2196;47.422;9.656;2023-10-19T06:22:53;10.60;99.90
4366;DHT22;2196;47.422;9.656;2023-10-19T06:25:23;10.60;99.90
4366;DHT22;2196;47.422;9.656;2023-10-19T06:27:52;10.60;99.90
4366;DHT22;2196;47.422;9.656;2023-10-19T06:30:23;10.60;99.90
4366;DHT22;2196;47.422;9.656;2023-10-19T06:32:52;10.70;99.90
4366;DHT22;2196;47.422;9.656;2023-10-19T06:35:19;10.70;99.90
4366;DHT22;2196;47.422;9.656;2023-10-19T06:37:47;10.70;99.90
4366;DHT22;2196;47.422;9.656;2023-10-19T06:40:15;10.80;99.90
4366;DHT22;2196;47.422;9.656;2023-10-19T06:42:45;10.80;99.90
4366;DHT22;2196;47.422;9.656;2023-10-19T06:45:13;10.80;99.90
4366;DHT22;2196;47.422;9.656;2023-10-19T06:47:41;10.80;99.90
4366;DHT22;2196;47.422;9.656;2023-10-19T06:50:09;10.80;99.90
4366;DHT22;2196;47.422;9.656;2023-10-19T06:52:37;10.90;99.90
4366;DHT22;2196;47.422;9.656;2023-10-19T06:55:04;10.90;99.90
4366;DHT22;2196;47.422;9.656;2023-10-19T06:57:33;10.90;99.90
4366;DHT22;2196;47.422;9.656;2023-10-19T07:00:01;10.90;99.90
4366;DHT22;2196;47.422;9.656;2023-10-19T07:02:40;10.90;99.90
4366;DHT22;2196;47.422;9.656;2023-10-19T07:05:07;11.00;99.90
4366;DHT22;2196;47.422;9.656;2023-10-19T07:07:36;11.00;99.90
4366;DHT22;2196;47.422;9.656;2023-10-19T07:10:06;11.10;99.90
4366;DHT22;2196;47.422;9.656;2023-10-19T07:12:34;11.20;99.90
4366;DHT22;2196;47.422;9.656;2023-10-19T07:15:02;11.20;99.90
4366;DHT22;2196;47.422;9.656;2023-10-19T07:17:33;11.30;99.90
4366;DHT22;2196;47.422;9.656;2023-10-19T07:20:00;11.30;99.90
4366;DHT22;2196;47.422;9.656;2023-10-19T07:22:28;11.30;99.90
4366;DHT22;2196;47.422;9.656;2023-10-19T07:24:56;11.40;99.90
4366;DHT22;2196;47.422;9.656;2023-10-19T07:27:23;11.40;99.90
4366;DHT22;2196;47.422;9.656;2023-10-19T07:29:53;11.40;99.90
4366;DHT22;2196;47.422;9.656;2023-10-19T07:32:22;11.50;99.90
4366;DHT22;2196;47.422;9.656;2023-10-19T07:34:49;11.50;99.90
4366;DHT22;2196;47.422;9.656;2023-10-19T07:37:16;11.60;99.90
4366;DHT22;2196;47.422;9.656;2023-10-19T07:39:45;11.60;99.90
4366;DHT22;2196;47.422;9.656;2023-10-19T07:42:12;11.50;99.90
4366;DHT22;2196;47.422;9.656;2023-10-19T07:44:39;11.50;99.90
4366;DHT22;2196;47.422;9.656;2023-10-19T07:47:06;11.60;99.90
4366;DHT22;2196;47.422;9.656;2023-10-19T07:49:36;11.60;99.90
4366;DHT22;2196;47.422;9.656;2023-10-19T07:52:04;11.60;99.90
4366;DHT22;2196;47.422;9.656;2023-10-19T07:54:32;11.60;99.90
4366;DHT22;2196;47.422;9.656;2023-10-19T07:56:59;11.60;99.90
4366;DHT22;2196;47.422;9.656;2023-10-19T07:59:29;11.60;99.90
4366;DHT22;2196;47.422;9.656;2023-10-19T08:01:56;11.70;99.90
4366;DHT22;2196;47.422;9.656;2023-10-19T08:04:23;11.70;99.90
4366;DHT22;2196;47.422;9.656;2023-10-19T08:06:52;11.70;99.90
4366;DHT22;2196;47.422;9.656;2023-10-19T08:09:19;11.70;99.90
4366;DHT22;2196;47.422;9.656;2023-10-19T08:11:48;11.80;99.90
4366;DHT22;2196;47.422;9.656;2023-10-19T08:14:16;11.80;99.90
4366;DHT22;2196;47.422;9.656;2023-10-19T08:16:43;11.80;99.90
4366;DHT22;2196;47.422;9.656;2023-10-19T08:19:10;11.90;99.90
4366;DHT22;2196;47.422;9.656;2023-10-19T08:21:37;11.90;99.90
4366;DHT22;2196;47.422;9.656;2023-10-19T08:24:07;12.00;99.90
4366;DHT22;2196;47.422;9.656;2023-10-19T08:26:39;12.00;99.90
4366;DHT22;2196;47.422;9.656;2023-10-19T08:29:07;12.10;99.90
4366;DHT22;2196;47.422;9.656;2023-10-19T08:31:38;12.20;99.90
4366;DHT22;2196;47.422;9.656;2023-10-19T08:34:06;12.30;99.90
4366;DHT22;2196;47.422;9.656;2023-10-19T08:36:35;12.50;99.90
4366;DHT22;2196;47.422;9.656;2023-10-19T08:39:03;12.60;99.90
4366;DHT22;2196;47.422;9.656;2023-10-19T08:41:33;12.80;99.90
4366;DHT22;2196;47.422;9.656;2023-10-19T08:44:03;12.90;99.90
4366;DHT22;2196;47.422;9.656;2023-10-19T08:46:30;13.10;99.90
4366;DHT22;2196;47.422;9.656;2023-10-19T08:48:58;13.30;99.90
4366;DHT22;2196;47.422;9.656;2023-10-19T08:51:26;13.50;99.90
4366;DHT22;2196;47.422;9.656;2023-10-19T08:53:54;13.60;99.90
4366;DHT22;2196;47.422;9.656;2023-10-19T08:56:22;13.70;99.90
4366;DHT22;2196;47.422;9.656;2023-10-19T08:58:52;13.80;99.90
4366;DHT22;2196;47.422;9.656;2023-10-19T09:01:19;13.90;99.90
4366;DHT22;2196;47.422;9.656;2023-10-19T09:03:50;14.00;99.90
4366;DHT22;2196;47.422;9.656;2023-10-19T09:06:17;14.10;99.90
4366;DHT22;2196;47.422;9.656;2023-10-19T09:08:47;14.10;99.90
4366;DHT22;2196;47.422;9.656;2023-10-19T09:11:15;14.20;99.90
4366;DHT22;2196;47.422;9.656;2023-10-19T09:13:45;14.20;99.90
4366;DHT22;2196;47.422;9.656;2023-10-19T09:16:14;14.40;99.90
4366;DHT22;2196;47.422;9.656;2023-10-19T09:18:42;14.50;99.90
4366;DHT22;2196;47.422;9.656;2023-10-19T09:21:10;14.50;99.90
4366;DHT22;2196;47.422;9.656;2023-10-19T09:23:39;14.50;99.90
4366;DHT22;2196;47.422;9.656;2023-10-19T09:26:07;14.60;99.90
4366;DHT22;2196;47.422;9.656;2023-10-19T09:28:35;14.80;99.90
4366;DHT22;2196;47.422;9.656;2023-10-19T09:31:03;14.80;99.90
4366;DHT22;2196;47.422;9.656;2023-10-19T09:33:33;14.90;99.90
4366;DHT22;2196;47.422;9.656;2023-10-19T09:36:03;14.90;99.90
4366;DHT22;2196;47.422;9.656;2023-10-19T09:38:38;14.90;99.90
4366;DHT22;2196;47.422;9.656;2023-10-19T09:41:08;15.00;99.90
4366;DHT22;2196;47.422;9.656;2023-10-19T09:43:42;15.00;99.90
4366;DHT22;2196;47.422;9.656;2023-10-19T09:46:10;15.00;99.90
4366;DHT22;2196;47.422;9.656;2023-10-19T09:48:41;15.10;99.90
4366;DHT22;2196;47.422;9.656;2023-10-19T09:51:09;15.10;99.90
4366;DHT22;2196;47.422;9.656;2023-10-19T09:53:37;15.20;99.90
4366;DHT22;2196;47.422;9.656;2023-10-19T09:56:07;15.40;99.90
4366;DHT22;2196;47.422;9.656;2023-10-19T09:58:36;15.50;99.90
4366;DHT22;2196;47.422;9.656;2023-10-19T10:01:06;15.50;99.90
4366;DHT22;2196;47.422;9.656;2023-10-19T10:03:49;15.40;99.90
4366;DHT22;2196;47.422;9.656;2023-10-19T10:06:26;15.50;99.90
4366;DHT22;2196;47.422;9.656;2023-10-19T10:08:53;15.60;99.90
4366;DHT22;2196;47.422;9.656;2023-10-19T10:11:22;16.20;99.90
4366;DHT22;2196;47.422;9.656;2023-10-19T10:13:52;17.10;99.90
4366;DHT22;2196;47.422;9.656;2023-10-19T10:16:22;18.00;99.90
4366;DHT22;2196;47.422;9.656;2023-10-19T10:18:55;18.80;99.90
4366;DHT22;2196;47.422;9.656;2023-10-19T10:21:26;18.90;99.90
4366;DHT22;2196;47.422;9.656;2023-10-19T10:23:54;18.70;99.90
4366;DHT22;2196;47.422;9.656;2023-10-19T10:26:24;18.20;99.90
4366;DHT22;2196;47.422;9.656;2023-10-19T10:29:11;18.00;99.90
4366;DHT22;2196;47.422;9.656;2023-10-19T10:31:43;18.00;99.90
4366;DHT22;2196;47.422;9.656;2023-10-19T10:34:42;17.80;99.90
4366;DHT22;2196;47.422;9.656;2023-10-19T10:37:10;17.60;99.90
4366;DHT22;2196;47.422;9.656;2023-10-19T10:39:39;17.70;99.90
4366;DHT22;2196;47.422;9.656;2023-10-19T10:42:08;18.00;99.90
4366;DHT22;2196;47.422;9.656;2023-10-19T10:44:36;18.00;99.90
4366;DHT22;2196;47.422;9.656;2023-10-19T10:47:05;17.80;99.90
4366;DHT22;2196;47.422;9.656;2023-10-19T10:49:46;17.80;99.90
4366;DHT22;2196;47.422;9.656;2023-10-19T10:52:23;17.90;99.90
4366;DHT22;2196;47.422;9.656;2023-10-19T10:54:50;18.20;99.90
4366;DHT22;2196;47.422;9.656;2023-10-19T10:57:18;18.30;99.90
4366;DHT22;2196;47.422;9.656;2023-10-19T10:59:45;18.50;99.90
4366;DHT22;2196;47.422;9.656;2023-10-19T11:02:19;18.40;99.90
4366;DHT22;2196;47.422;9.656;2023-10-19T11:04:48;18.20;99.90
4366;DHT22;2196;47.422;9.656;2023-10-19T11:07:19;18.10;99.90
4366;DHT22;2196;47.422;9.656;2023-10-19T11:09:47;17.90;99.90
4366;DHT22;2196;47.422;9.656;2023-10-19T11:12:15;17.80;99.90
4366;DHT22;2196;47.422;9.656;2023-10-19T11:14:52;17.90;99.90
4366;DHT22;2196;47.422;9.656;2023-10-19T11:17:20;18.00;99.90
4366;DHT22;2196;47.422;9.656;2023-10-19T11:19:55;18.10;99.90
4366;DHT22;2196;47.422;9.656;2023-10-19T11:22:23;18.10;99.90
4366;DHT22;2196;47.422;9.656;2023-10-19T11:24:52;18.00;99.90
4366;DHT22;2196;47.422;9.656;2023-10-19T11:27:25;17.90;99.90
4366;DHT22;2196;47.422;9.656;2023-10-19T11:29:56;17.70;99.90
4366;DHT22;2196;47.422;9.656;2023-10-19T11:32:24;17.50;99.90
4366;DHT22;2196;47.422;9.656;2023-10-19T11:34:53;17.50;99.90
4366;DHT22;2196;47.422;9.656;2023-10-19T11:37:20;17.50;99.90
4366;DHT22;2196;47.422;9.656;2023-10-19T11:39:47;17.40;99.90
4366;DHT22;2196;47.422;9.656;2023-10-19T11:42:15;17.30;99.90
4366;DHT22;2196;47.422;9.656;2023-10-19T11:44:43;17.30;99.90
4366;DHT22;2196;47.422;9.656;2023-10-19T11:47:11;17.20;99.90
4366;DHT22;2196;47.422;9.656;2023-10-19T11:49:38;17.10;99.90
4366;DHT22;2196;47.422;9.656;2023-10-19T11:52:09;17.00;99.90
4366;DHT22;2196;47.422;9.656;2023-10-19T11:54:36;16.90;99.90
4366;DHT22;2196;47.422;9.656;2023-10-19T11:57:04;16.80;99.90
4366;DHT22;2196;47.422;9.656;2023-10-19T11:59:30;16.70;99.90
4366;DHT22;2196;47.422;9.656;2023-10-19T12:01:57;16.70;99.90
4366;DHT22;2196;47.422;9.656;2023-10-19T12:04:26;16.60;99.90
4366;DHT22;2196;47.422;9.656;2023-10-19T12:06:53;16.50;99.90
4366;DHT22;2196;47.422;9.656;2023-10-19T12:09:22;16.50;99.90
4366;DHT22;2196;47.422;9.656;2023-10-19T12:11:51;16.40;99.90
4366;DHT22;2196;47.422;9.656;2023-10-19T12:14:19;16.40;99.90
4366;DHT22;2196;47.422;9.656;2023-10-19T12:16:47;16.50;99.90
4366;DHT22;2196;47.422;9.656;2023-10-19T12:19:14;16.60;99.90
4366;DHT22;2196;47.422;9.656;2023-10-19T12:21:43;16.70;99.90
4366;DHT22;2196;47.422;9.656;2023-10-19T12:24:10;16.70;99.90
4366;DHT22;2196;47.422;9.656;2023-10-19T12:26:39;16.70;99.90
4366;DHT22;2196;47.422;9.656;2023-10-19T12:29:06;16.70;99.90
4366;DHT22;2196;47.422;9.656;2023-10-19T12:31:35;16.60;99.90
4366;DHT22;2196;47.422;9.656;2023-10-19T12:34:05;16.60;99.90
4366;DHT22;2196;47.422;9.656;2023-10-19T12:36:33;16.60;99.90
4366;DHT22;2196;47.422;9.656;2023-10-19T12:39:01;16.60;99.90
4366;DHT22;2196;47.422;9.656;2023-10-19T12:41:31;16.50;99.90
4366;DHT22;2196;47.422;9.656;2023-10-19T12:44:00;16.50;99.90
4366;DHT22;2196;47.422;9.656;2023-10-19T12:46:28;16.40;99.90
4366;DHT22;2196;47.422;9.656;2023-10-19T12:48:55;16.40;99.90
4366;DHT22;2196;47.422;9.656;2023-10-19T12:51:24;16.40;99.90
4366;DHT22;2196;47.422;9.656;2023-10-19T12:53:52;16.40;99.90
4366;DHT22;2196;47.422;9.656;2023-10-19T12:56:19;16.50;99.90
4366;DHT22;2196;47.422;9.656;2023-10-19T12:58:46;16.50;99.90
4366;DHT22;2196;47.422;9.656;2023-10-19T13:01:15;16.40;99.90
4366;DHT22;2196;47.422;9.656;2023-10-19T13:03:45;16.30;99.90
4366;DHT22;2196;47.422;9.656;2023-10-19T13:06:13;16.20;99.90
4366;DHT22;2196;47.422;9.656;2023-10-19T13:08:40;16.10;99.90
4366;DHT22;2196;47.422;9.656;2023-10-19T13:11:08;16.10;99.90
4366;DHT22;2196;47.422;9.656;2023-10-19T13:13:35;16.20;99.90
4366;DHT22;2196;47.422;9.656;2023-10-19T13:16:03;16.30;99.90
4366;DHT22;2196;47.422;9.656;2023-10-19T13:18:32;16.30;99.90
4366;DHT22;2196;47.422;9.656;2023-10-19T13:21:01;16.30;99.90
4366;DHT22;2196;47.422;9.656;2023-10-19T13:23:30;16.30;99.90
4366;DHT22;2196;47.422;9.656;2023-10-19T13:25:58;16.30;99.90
4366;DHT22;2196;47.422;9.656;2023-10-19T13:28:34;16.20;99.90
4366;DHT22;2196;47.422;9.656;2023-10-19T13:31:03;16.20;99.90
4366;DHT22;2196;47.422;9.656;2023-10-19T13:33:32;16.20;99.90
4366;DHT22;2196;47.422;9.656;2023-10-19T13:35:58;16.20;99.90
4366;DHT22;2196;47.422;9.656;2023-10-19T13:38:25;16.30;99.90
4366;DHT22;2196;47.422;9.656;2023-10-19T13:40:56;16.40;99.90
4366;DHT22;2196;47.422;9.656;2023-10-19T13:43:23;16.60;99.90
4366;DHT22;2196;47.422;9.656;2023-10-19T13:45:50;16.80;99.90
4366;DHT22;2196;47.422;9.656;2023-10-19T13:48:18;17.10;99.90
4366;DHT22;2196;47.422;9.656;2023-10-19T13:50:48;17.40;99.90
4366;DHT22;2196;47.422;9.656;2023-10-19T13:53:15;17.50;99.90
4366;DHT22;2196;47.422;9.656;2023-10-19T13:55:42;17.60;99.90
4366;DHT22;2196;47.422;9.656;2023-10-19T13:58:09;17.80;99.90
4366;DHT22;2196;47.422;9.656;2023-10-19T14:00:41;17.90;99.90
4366;DHT22;2196;47.422;9.656;2023-10-19T14:03:09;17.90;99.90
4366;DHT22;2196;47.422;9.656;2023-10-19T14:05:38;17.70;99.90
4366;DHT22;2196;47.422;9.656;2023-10-19T14:08:07;17.60;99.90
4366;DHT22;2196;47.422;9.656;2023-10-19T14:10:34;17.40;99.90
4366;DHT22;2196;47.422;9.656;2023-10-19T14:13:02;17.30;99.90
4366;DHT22;2196;47.422;9.656;2023-10-19T14:15:31;17.20;99.90
4366;DHT22;2196;47.422;9.656;2023-10-19T14:18:00;17.20;99.90
4366;DHT22;2196;47.422;9.656;2023-10-19T14:20:29;17.20;99.90
4366;DHT22;2196;47.422;9.656;2023-10-19T14:22:56;17.30;99.90
4366;DHT22;2196;47.422;9.656;2023-10-19T14:25:25;17.30;99.90
4366;DHT22;2196;47.422;9.656;2023-10-19T14:27:54;17.40;99.90
4366;DHT22;2196;47.422;9.656;2023-10-19T14:30:25;17.60;99.90
4366;DHT22;2196;47.422;9.656;2023-10-19T14:32:54;17.70;99.90
4366;DHT22;2196;47.422;9.656;2023-10-19T14:35:22;17.80;99.90
4366;DHT22;2196;47.422;9.656;2023-10-19T14:37:52;17.80;99.90
4366;DHT22;2196;47.422;9.656;2023-10-19T14:40:22;17.70;99.90
4366;DHT22;2196;47.422;9.656;2023-10-19T14:42:52;17.70;99.90
4366;DHT22;2196;47.422;9.656;2023-10-19T14:45:21;17.60;99.90
4366;DHT22;2196;47.422;9.656;2023-10-19T14:47:51;17.40;99.90
4366;DHT22;2196;47.422;9.656;2023-10-19T14:50:20;17.40;99.90
4366;DHT22;2196;47.422;9.656;2023-10-19T14:52:49;17.30;99.90
4366;DHT22;2196;47.422;9.656;2023-10-19T14:55:16;17.30;99.90
4366;DHT22;2196;47.422;9.656;2023-10-19T14:57:44;17.30;99.90
4366;DHT22;2196;47.422;9.656;2023-10-19T15:00:17;17.20;99.90
4366;DHT22;2196;47.422;9.656;2023-10-19T15:02:52;17.20;99.90
4366;DHT22;2196;47.422;9.656;2023-10-19T15:05:21;17.00;99.90
4366;DHT22;2196;47.422;9.656;2023-10-19T15:07:51;17.00;99.90
4366;DHT22;2196;47.422;9.656;2023-10-19T15:10:19;16.90;99.90
4366;DHT22;2196;47.422;9.656;2023-10-19T15:12:46;16.80;99.90
4366;DHT22;2196;47.422;9.656;2023-10-19T15:15:16;16.80;99.90
4366;DHT22;2196;47.422;9.656;2023-10-19T15:17:43;16.70;99.90
4366;DHT22;2196;47.422;9.656;2023-10-19T15:20:11;16.60;99.90
4366;DHT22;2196;47.422;9.656;2023-10-19T15:22:40;16.50;99.90
4366;DHT22;2196;47.422;9.656;2023-10-19T15:25:07;16.40;99.90
4366;DHT22;2196;47.422;9.656;2023-10-19T15:27:36;16.30;99.90
4366;DHT22;2196;47.422;9.656;2023-10-19T15:30:04;16.10;99.90
4366;DHT22;2196;47.422;9.656;2023-10-19T15:32:33;16.10;99.90
4366;DHT22;2196;47.422;9.656;2023-10-19T15:35:00;15.90;99.90
4366;DHT22;2196;47.422;9.656;2023-10-19T15:37:28;15.90;99.90
4366;DHT22;2196;47.422;9.656;2023-10-19T15:39:55;15.80;99.90
4366;DHT22;2196;47.422;9.656;2023-10-19T15:42:23;15.80;99.90
4366;DHT22;2196;47.422;9.656;2023-10-19T15:44:50;15.80;99.90
4366;DHT22;2196;47.422;9.656;2023-10-19T15:47:17;15.80;99.90
4366;DHT22;2196;47.422;9.656;2023-10-19T15:49:51;15.80;99.90
4366;DHT22;2196;47.422;9.656;2023-10-19T15:52:19;15.80;99.90
4366;DHT22;2196;47.422;9.656;2023-10-19T15:54:47;15.70;99.90
4366;DHT22;2196;47.422;9.656;2023-10-19T15:57:14;15.60;99.90
4366;DHT22;2196;47.422;9.656;2023-10-19T15:59:41;15.60;99.90
4366;DHT22;2196;47.422;9.656;2023-10-19T16:02:08;15.60;99.90
4366;DHT22;2196;47.422;9.656;2023-10-19T16:04:36;15.50;99.90
4366;DHT22;2196;47.422;9.656;2023-10-19T16:07:04;15.50;99.90
4366;DHT22;2196;47.422;9.656;2023-10-19T16:09:32;15.40;99.90
4366;DHT22;2196;47.422;9.656;2023-10-19T16:11:59;15.40;99.90
4366;DHT22;2196;47.422;9.656;2023-10-19T16:14:26;15.40;99.90